Time;durP1;ratioP1;P1;durP2;ratioP2;P2;SDS_P1;SDS_P2;PMS_P1;PMS_P2;Temp;Humidity;BMP_temperature;BMP_pressure;BME280_temperature;BME280_humidity;BME280_pressure;Samples;Min_cycle;Max_cycle;Signal;HPM_P1;HPM_P2
2022/01/10 00:00:50;;;;;;;84.90;37.20;;;;;;;1.14;77.23;99497.36;52868;1273;1016383;-59
2022/01/10 00:03:22;;;;;;;78.70;34.50;;;;;;;1.18;77.23;99501.41;52874;1271;1016654;-59
2022/01/10 00:05:53;;;;;;;72.90;33.10;;;;;;;1.21;77.16;99503.70;52899;1271;1016318;-60
2022/01/10 00:08:25;;;;;;;68.40;30.10;;;;;;;1.21;77.23;99505.64;52836;1273;1015867;-59
2022/01/10 00:10:57;;;;;;;83.10;34.80;;;;;;;1.22;77.23;99506.41;52862;1272;1015868;-59
2022/01/10 00:13:28;;;;;;;80.30;33.00;;;;;;;1.22;77.08;99510.02;52818;1271;1019935;-59
2022/01/10 00:15:59;;;;;;;72.90;33.20;;;;;;;1.23;77.04;99514.47;52948;1271;1016872;-59
2022/01/10 00:18:30;;;;;;;79.90;33.10;;;;;;;1.26;77.14;99520.52;52881;1272;1016791;-60
2022/01/10 00:21:01;;;;;;;80.40;33.50;;;;;;;1.28;77.15;99524.93;52869;1271;1019881;-60
2022/01/10 00:23:32;;;;;;;73.30;33.20;;;;;;;1.31;77.19;99528.47;52870;1272;1016326;-59
2022/01/10 00:26:03;;;;;;;76.20;31.60;;;;;;;1.33;77.17;99530.38;52910;1271;1016684;-59
2022/01/10 00:28:34;;;;;;;73.30;31.50;;;;;;;1.34;77.16;99533.44;52959;1272;1016553;-58
2022/01/10 00:31:05;;;;;;;69.80;31.00;;;;;;;1.36;77.32;99539.64;52924;1271;1016294;-60
2022/01/10 00:33:36;;;;;;;68.10;32.60;;;;;;;1.38;77.21;99544.88;52899;1272;1016587;-60
2022/01/10 00:36:09;;;;;;;69.20;31.40;;;;;;;1.39;77.14;99550.35;52763;1271;1016714;-59
2022/01/10 00:38:41;;;;;;;70.00;30.60;;;;;;;1.39;77.15;99555.98;52896;1271;1016820;-58
2022/01/10 00:41:12;;;;;;;63.40;28.60;;;;;;;1.37;77.09;99553.77;53053;1271;1016506;-59
2022/01/10 00:43:46;;;;;;;64.40;28.30;;;;;;;1.37;77.21;99556.77;52859;1271;1018566;-58
2022/01/10 00:46:18;;;;;;;70.50;29.10;;;;;;;1.39;77.27;99562.45;52869;1272;1017347;-59
2022/01/10 00:48:49;;;;;;;62.70;28.20;;;;;;;1.40;77.32;99562.80;52860;1271;1016425;-58
2022/01/10 00:51:20;;;;;;;65.80;28.60;;;;;;;1.41;77.16;99569.14;52991;1273;1015966;-58
2022/01/10 00:53:52;;;;;;;65.10;29.90;;;;;;;1.41;77.22;99570.15;52857;1273;1016518;-59
2022/01/10 00:56:24;;;;;;;73.20;30.80;;;;;;;1.39;77.30;99570.68;52712;1271;1016606;-59
2022/01/10 00:58:55;;;;;;;65.50;29.10;;;;;;;1.37;77.09;99573.55;52498;1273;1016120;-57
2022/01/10 01:01:26;;;;;;;68.40;29.50;;;;;;;1.33;77.06;99578.79;52580;1272;1016129;-59
2022/01/10 01:03:58;;;;;;;64.00;29.30;;;;;;;1.33;77.13;99582.48;52555;1273;1016392;-58
2022/01/10 01:06:28;;;;;;;63.60;28.60;;;;;;;1.36;77.40;99585.86;52728;1272;1016283;-58
2022/01/10 01:09:06;;;;;;;67.30;30.50;;;;;;;1.37;77.46;99586.84;52571;1273;1017752;-58
2022/01/10 01:12:05;;;;;;;67.90;29.90;;;;;;;1.39;77.46;99589.92;52716;1271;1016350;-58
2022/01/10 01:14:52;;;;;;;63.40;28.00;;;;;;;1.40;77.55;99591.10;52685;1271;1016598;-58
2022/01/10 01:20:31;;;;;;;64.90;30.40;;;;;;;1.43;77.62;99596.83;52534;1272;1016178;-58
2022/01/10 01:25:51;;;;;;;83.20;34.20;;;;;;;1.46;77.54;99604.44;52623;1273;1018431;-58
2022/01/10 01:28:22;;;;;;;79.80;34.80;;;;;;;1.46;77.45;99610.41;52672;1273;1017129;-60
2022/01/10 01:30:53;;;;;;;76.50;35.20;;;;;;;1.46;77.35;99610.64;52723;1273;1016387;-57
2022/01/10 01:33:25;;;;;;;78.00;35.40;;;;;;;1.46;77.29;99615.36;52723;1271;1016405;-58
2022/01/10 01:35:56;;;;;;;74.90;35.70;;;;;;;1.48;77.49;99615.64;52634;1271;1016669;-58
2022/01/10 01:38:27;;;;;;;79.10;35.50;;;;;;;1.51;77.42;99618.95;52685;1272;1016650;-58
2022/01/10 01:41:12;;;;;;;74.40;34.70;;;;;;;1.51;77.60;99624.27;52458;1273;1018161;-59
2022/01/10 01:43:43;;;;;;;72.60;34.00;;;;;;;1.52;77.43;99624.33;52571;1272;1016046;-58
2022/01/10 01:46:15;;;;;;;110.70;46.30;;;;;;;1.53;77.16;99623.50;52602;1273;1018008;-58
2022/01/10 01:48:46;;;;;;;88.30;37.50;;;;;;;1.51;77.07;99625.84;52594;1273;1016596;-59
2022/01/10 01:51:18;;;;;;;87.40;38.20;;;;;;;1.51;77.09;99630.78;52674;1272;1016529;-59
2022/01/10 01:53:52;;;;;;;86.50;37.40;;;;;;;1.51;77.05;99629.31;52588;1272;1016356;-59
2022/01/10 01:56:24;;;;;;;80.60;36.30;;;;;;;1.49;77.13;99632.98;52568;1271;1016653;-58
2022/01/10 01:58:57;;;;;;;76.00;36.10;;;;;;;1.45;77.12;99639.52;52706;1271;1016024;-58
2022/01/10 02:01:28;;;;;;;76.40;34.80;;;;;;;1.43;77.29;99646.89;52674;1273;1016613;-58
2022/01/10 02:04:00;;;;;;;75.30;32.90;;;;;;;1.43;77.27;99650.19;52712;1271;1016458;-58
2022/01/10 02:06:34;;;;;;;75.50;33.50;;;;;;;1.43;77.21;99648.36;52706;1271;1016687;-58
2022/01/10 02:09:06;;;;;;;78.10;31.80;;;;;;;1.45;77.37;99655.63;52629;1271;1016538;-58
2022/01/10 02:11:37;;;;;;;64.70;31.80;;;;;;;1.45;77.26;99662.63;52608;1272;1015993;-58
2022/01/10 02:14:08;;;;;;;65.50;29.30;;;;;;;1.47;77.30;99663.13;52610;1272;1016406;-57
2022/01/10 02:16:43;;;;;;;63.60;28.90;;;;;;;1.45;77.16;99670.00;52569;1273;1016327;-58
2022/01/10 02:19:15;;;;;;;58.30;26.90;;;;;;;1.41;77.27;99672.16;52540;1272;1018605;-58
2022/01/10 02:21:46;;;;;;;61.20;27.50;;;;;;;1.32;77.34;99673.16;52708;1271;1016799;-58
2022/01/10 02:24:17;;;;;;;60.40;27.40;;;;;;;1.27;77.60;99676.05;52510;1271;1016629;-58
2022/01/10 02:26:51;;;;;;;62.10;28.00;;;;;;;1.24;77.50;99677.69;52645;1271;1015956;-57
2022/01/10 02:29:22;;;;;;;59.10;26.20;;;;;;;1.24;77.59;99682.23;52676;1273;1016609;-58
2022/01/10 02:31:53;;;;;;;59.80;27.00;;;;;;;1.27;77.98;99689.79;52541;1272;1016537;-57
2022/01/10 02:34:25;;;;;;;82.70;33.20;;;;;;;1.28;77.98;99693.16;52660;1273;1016674;-59
2022/01/10 02:36:59;;;;;;;73.00;31.60;;;;;;;1.29;77.87;99695.55;52669;1272;1016321;-58
2022/01/10 02:39:30;;;;;;;77.70;31.70;;;;;;;1.30;77.89;99695.52;52703;1272;1016524;-58
2022/01/10 02:42:02;;;;;;;72.90;31.70;;;;;;;1.33;77.72;99698.53;52592;1271;1016526;-58
2022/01/10 02:44:33;;;;;;;78.90;34.00;;;;;;;1.35;77.88;99703.19;52550;1273;1016538;-58
2022/01/10 02:47:06;;;;;;;74.00;33.50;;;;;;;1.36;77.79;99702.60;52666;1271;1016365;-58
2022/01/10 02:49:37;;;;;;;72.60;31.50;;;;;;;1.37;77.76;99703.98;52558;1273;1016628;-59
2022/01/10 02:52:09;;;;;;;85.90;38.00;;;;;;;1.39;77.82;99710.33;52633;1272;1015932;-61
2022/01/10 02:54:42;;;;;;;96.60;41.50;;;;;;;1.41;77.71;99709.08;52783;1273;1016238;-58
2022/01/10 02:57:13;;;;;;;87.90;38.20;;;;;;;1.44;77.56;99712.77;52660;1271;1018763;-58
2022/01/10 02:59:44;;;;;;;83.70;33.10;;;;;;;1.40;77.44;99712.02;52594;1271;1016267;-58
2022/01/10 03:02:21;;;;;;;69.60;33.00;;;;;;;1.37;77.53;99710.90;52775;1272;1016315;-58
2022/01/10 03:04:53;;;;;;;70.90;33.40;;;;;;;1.31;77.48;99715.00;52587;1271;1016092;-58
2022/01/10 03:07:24;;;;;;;63.50;28.70;;;;;;;1.25;77.56;99718.89;52550;1271;1016375;-57
2022/01/10 03:09:56;;;;;;;64.90;28.20;;;;;;;1.27;77.66;99726.00;52607;1271;1018390;-58
2022/01/10 03:12:30;;;;;;;66.30;29.50;;;;;;;1.27;77.69;99729.55;52663;1271;1016755;-58
2022/01/10 03:15:02;;;;;;;60.90;26.50;;;;;;;1.32;77.94;99732.73;52690;1271;1016737;-58
2022/01/10 03:17:34;;;;;;;71.10;32.40;;;;;;;1.34;77.99;99734.34;52547;1271;1016647;-57
2022/01/10 03:20:08;;;;;;;72.80;31.70;;;;;;;1.33;77.92;99739.52;52612;1271;1016233;-57
2022/01/10 03:22:39;;;;;;;69.30;29.90;;;;;;;1.34;77.92;99740.15;52743;1271;1016377;-58
2022/01/10 03:25:12;;;;;;;63.50;28.20;;;;;;;1.35;77.91;99745.78;52616;1271;1016149;-58
2022/01/10 03:27:43;;;;;;;63.50;26.70;;;;;;;1.37;77.95;99752.41;52672;1271;1016783;-58
2022/01/10 03:30:15;;;;;;;60.50;27.00;;;;;;;1.36;77.83;99756.20;52607;1273;1016521;-58
2022/01/10 03:32:50;;;;;;;58.30;25.80;;;;;;;1.35;77.84;99760.55;52653;1271;1016469;-60
2022/01/10 03:35:21;;;;;;;55.10;23.90;;;;;;;1.34;77.70;99766.38;52638;1273;1016520;-58
2022/01/10 03:37:52;;;;;;;59.80;24.70;;;;;;;1.34;77.84;99770.47;52547;1271;1016618;-58
2022/01/10 03:40:24;;;;;;;54.30;24.30;;;;;;;1.33;77.68;99770.72;52698;1272;1016695;-58
2022/01/10 03:42:55;;;;;;;54.00;24.20;;;;;;;1.31;77.71;99775.23;52584;1272;1016536;-58
2022/01/10 03:45:27;;;;;;;60.20;26.30;;;;;;;1.32;77.68;99778.38;52685;1271;1016149;-59
2022/01/10 03:47:58;;;;;;;61.80;30.00;;;;;;;1.32;77.78;99784.19;52845;1271;1017180;-58
2022/01/10 03:50:30;;;;;;;70.20;29.40;;;;;;;1.33;77.81;99787.38;52610;1271;1016162;-58
2022/01/10 03:53:01;;;;;;;61.00;25.90;;;;;;;1.34;77.71;99794.44;52592;1273;1016086;-59
2022/01/10 03:55:32;;;;;;;55.20;24.50;;;;;;;1.35;77.84;99796.78;52587;1271;1015720;-59
2022/01/10 03:58:03;;;;;;;55.10;24.60;;;;;;;1.33;77.64;99795.40;52635;1273;1016517;-59
2022/01/10 04:00:35;;;;;;;51.70;22.70;;;;;;;1.33;77.75;99796.27;52585;1273;1017031;-57
2022/01/10 04:03:07;;;;;;;50.10;21.00;;;;;;;1.34;77.74;99806.78;52640;1271;1016232;-58
2022/01/10 04:05:38;;;;;;;49.50;21.50;;;;;;;1.34;77.74;99811.17;52724;1272;1015966;-61
2022/01/10 04:08:12;;;;;;;55.50;21.20;;;;;;;1.35;77.73;99816.41;52704;1271;1015556;-58
2022/01/10 04:10:43;;;;;;;73.30;32.00;;;;;;;1.36;77.66;99817.80;52696;1273;1016828;-58
2022/01/10 04:13:14;;;;;;;93.60;39.80;;;;;;;1.36;77.67;99826.14;52816;1271;1016522;-59
2022/01/10 04:15:46;;;;;;;99.40;44.50;;;;;;;1.37;77.74;99830.83;52721;1273;1017175;-57
2022/01/10 04:18:17;;;;;;;69.00;30.50;;;;;;;1.38;77.73;99834.49;52595;1271;1016689;-59
2022/01/10 04:20:49;;;;;;;70.30;28.30;;;;;;;1.36;77.46;99835.73;52653;1271;1016526;-58
2022/01/10 04:23:20;;;;;;;66.30;28.40;;;;;;;1.38;77.58;99842.91;52709;1271;1016455;-58
2022/01/10 04:25:52;;;;;;;59.90;24.80;;;;;;;1.40;77.73;99843.88;52610;1273;1016612;-58
2022/01/10 04:28:25;;;;;;;52.80;23.10;;;;;;;1.38;77.52;99848.56;52690;1271;1018876;-58
2022/01/10 04:30:57;;;;;;;55.40;22.80;;;;;;;1.31;77.34;99850.06;52618;1271;1016731;-59
2022/01/10 04:33:28;;;;;;;53.80;20.70;;;;;;;1.25;77.47;99859.67;52867;1271;1016215;-58
2022/01/10 04:36:00;;;;;;;49.60;22.30;;;;;;;1.20;77.67;99866.63;52489;1271;1018858;-58
2022/01/10 04:38:31;;;;;;;51.00;22.10;;;;;;;1.21;77.97;99872.72;52511;1271;1016622;-59
2022/01/10 04:41:04;;;;;;;52.00;23.70;;;;;;;1.24;78.15;99880.60;52583;1271;1016594;-59
2022/01/10 04:43:37;;;;;;;59.20;26.50;;;;;;;1.27;78.14;99885.88;52554;1271;1016227;-58
2022/01/10 04:46:08;;;;;;;61.00;26.40;;;;;;;1.29;78.16;99893.94;52541;1271;1016249;-58
2022/01/10 04:48:40;;;;;;;57.50;24.40;;;;;;;1.29;77.97;99892.27;52604;1271;1016134;-58
2022/01/10 04:51:12;;;;;;;63.30;25.60;;;;;;;1.28;77.95;99896.95;52578;1272;1016267;-57
2022/01/10 04:53:46;;;;;;;53.00;23.20;;;;;;;1.25;78.02;99897.95;52559;1271;1018975;-57
2022/01/10 04:56:19;;;;;;;54.20;23.80;;;;;;;1.26;78.02;99901.23;52592;1271;1016250;-58
2022/01/10 04:58:52;;;;;;;58.00;24.20;;;;;;;1.24;77.99;99904.03;52693;1271;1019015;-57
2022/01/10 05:01:24;;;;;;;60.90;24.60;;;;;;;1.23;78.14;99903.41;52550;1271;1016337;-58
2022/01/10 05:03:55;;;;;;;60.20;27.10;;;;;;;1.23;78.10;99904.11;52558;1272;1016586;-57
2022/01/10 05:06:26;;;;;;;57.80;26.50;;;;;;;1.21;77.98;99903.75;52536;1271;1016770;-58
2022/01/10 05:08:57;;;;;;;63.20;26.30;;;;;;;1.18;78.05;99906.64;52545;1271;1015892;-57
2022/01/10 05:11:28;;;;;;;59.90;26.90;;;;;;;1.17;78.09;99907.46;52538;1271;1016527;-58
2022/01/10 05:14:00;;;;;;;65.30;29.30;;;;;;;1.20;78.27;99911.02;52547;1271;1020302;-58
2022/01/10 05:16:31;;;;;;;74.30;31.40;;;;;;;1.22;78.20;99911.05;52534;1271;1016487;-59
2022/01/10 05:19:02;;;;;;;61.80;26.30;;;;;;;1.25;78.18;99915.48;52571;1271;1016239;-57
2022/01/10 05:21:33;;;;;;;56.30;26.60;;;;;;;1.23;78.06;99922.41;52489;1271;1018464;-58
2022/01/10 05:24:05;;;;;;;59.70;25.60;;;;;;;1.24;78.13;99924.52;52581;1271;1016366;-57
2022/01/10 05:26:36;;;;;;;59.70;25.50;;;;;;;1.27;78.18;99927.92;52542;1271;1016617;-57
2022/01/10 05:29:08;;;;;;;58.30;25.90;;;;;;;1.29;78.29;99929.21;52575;1272;1016583;-58
2022/01/10 05:31:39;;;;;;;60.60;26.60;;;;;;;1.31;78.20;99935.61;52481;1271;1018558;-57
2022/01/10 05:34:09;;;;;;;60.30;26.00;;;;;;;1.29;78.26;99942.65;52602;1271;1017088;-56
2022/01/10 05:36:40;;;;;;;57.20;24.60;;;;;;;1.27;78.35;99942.53;52545;1271;1016706;-58
2022/01/10 05:39:11;;;;;;;60.80;24.90;;;;;;;1.26;78.29;99947.42;52548;1271;1016504;-59
2022/01/10 05:41:43;;;;;;;56.30;24.50;;;;;;;1.23;78.34;99952.35;52510;1271;1016520;-58
2022/01/10 05:44:14;;;;;;;63.60;27.40;;;;;;;1.23;78.47;99962.80;52605;1271;1016587;-59
2022/01/10 05:46:47;;;;;;;67.10;27.50;;;;;;;1.23;78.35;99966.27;52483;1271;1019758;-58
2022/01/10 05:49:25;;;;;;;84.60;35.60;;;;;;;1.20;78.36;99969.69;52528;1271;1019209;-62
2022/01/10 05:51:56;;;;;;;68.40;29.60;;;;;;;1.19;78.53;99974.74;52611;1271;1016679;-57
2022/01/10 05:54:27;;;;;;;84.10;36.10;;;;;;;1.19;78.56;99982.38;52477;1271;1016538;-58
2022/01/10 05:57:00;;;;;;;96.60;44.30;;;;;;;1.18;78.52;99987.65;52560;1271;1015912;-58
2022/01/10 05:59:32;;;;;;;71.90;30.10;;;;;;;1.17;78.61;99989.08;52463;1271;1015995;-58
2022/01/10 06:02:04;;;;;;;70.20;30.20;;;;;;;1.19;78.60;99996.12;52670;1271;1016684;-59
2022/01/10 06:04:35;;;;;;;81.50;31.30;;;;;;;1.20;78.60;100004.88;52691;1271;1015910;-58
2022/01/10 06:07:07;;;;;;;69.60;28.80;;;;;;;1.20;78.52;100009.52;52585;1271;1016429;-57
2022/01/10 06:09:38;;;;;;;68.10;29.70;;;;;;;1.21;78.63;100017.20;52602;1271;1016519;-59
2022/01/10 06:12:11;;;;;;;66.70;27.30;;;;;;;1.22;78.57;100023.94;52710;1271;1016437;-59
2022/01/10 06:14:42;;;;;;;75.10;37.70;;;;;;;1.22;78.62;100030.77;52615;1271;1016421;-58
2022/01/10 06:17:13;;;;;;;58.30;25.30;;;;;;;1.20;78.54;100037.73;52522;1271;1016744;-57
2022/01/10 06:19:44;;;;;;;56.30;23.40;;;;;;;1.19;78.62;100045.14;52523;1271;1016664;-58
2022/01/10 06:22:15;;;;;;;53.60;22.60;;;;;;;1.17;78.68;100053.96;52559;1271;1016493;-59
2022/01/10 06:24:47;;;;;;;70.20;29.90;;;;;;;1.16;78.70;100059.79;52480;1271;1017321;-58
2022/01/10 06:27:18;;;;;;;65.10;26.80;;;;;;;1.15;78.78;100065.16;52456;1271;1016615;-58
2022/01/10 06:29:49;;;;;;;82.00;40.60;;;;;;;1.15;78.79;100073.23;52536;1272;1017168;-58
2022/01/10 06:32:20;;;;;;;100.00;51.00;;;;;;;1.14;78.76;100078.69;52395;1271;1018198;-59
2022/01/10 06:34:52;;;;;;;55.10;24.60;;;;;;;1.12;78.68;100086.66;52531;1271;1016349;-59
2022/01/10 06:37:23;;;;;;;51.10;22.50;;;;;;;1.12;78.81;100093.35;52623;1271;1016485;-58
2022/01/10 06:39:55;;;;;;;65.20;30.40;;;;;;;1.11;78.78;100104.27;52485;1271;1017146;-61
2022/01/10 06:42:26;;;;;;;56.70;23.80;;;;;;;1.11;78.91;100105.38;52738;1271;1016067;-58
2022/01/10 06:44:57;;;;;;;54.90;23.00;;;;;;;1.12;78.82;100111.02;52489;1271;1016271;-60
2022/01/10 06:47:28;;;;;;;53.40;23.90;;;;;;;1.14;78.87;100119.05;52578;1272;1017598;-58
2022/01/10 06:49:59;;;;;;;64.60;24.80;;;;;;;1.17;78.87;100121.08;52506;1271;1016617;-58
2022/01/10 06:52:30;;;;;;;91.90;35.10;;;;;;;1.19;78.84;100125.73;52692;1271;1016706;-58
2022/01/10 06:55:01;;;;;;;68.10;27.60;;;;;;;1.18;78.76;100130.62;52578;1272;1016241;-57
2022/01/10 06:57:32;;;;;;;102.10;39.00;;;;;;;1.17;78.70;100136.77;52822;1271;1017484;-57
2022/01/10 07:00:05;;;;;;;58.50;23.30;;;;;;;1.18;78.81;100146.27;52398;1271;1016581;-56
2022/01/10 07:02:36;;;;;;;70.30;27.50;;;;;;;1.14;78.69;100151.20;52701;1271;1016437;-57
2022/01/10 07:05:09;;;;;;;92.90;39.90;;;;;;;1.08;78.69;100157.58;52457;1271;1017804;-57
2022/01/10 07:07:40;;;;;;;79.50;34.00;;;;;;;1.06;78.78;100162.77;52725;1271;1017518;-57
2022/01/10 07:10:12;;;;;;;82.10;32.80;;;;;;;1.05;78.82;100172.70;52502;1271;1016679;-58
2022/01/10 07:12:43;;;;;;;73.60;30.20;;;;;;;1.02;78.84;100176.52;52529;1271;1016181;-56
2022/01/10 07:15:15;;;;;;;99.60;36.20;;;;;;;1.02;78.95;100180.92;52504;1271;1016016;-57
2022/01/10 07:17:50;;;;;;;115.50;47.60;;;;;;;1.00;78.87;100186.91;52542;1271;1016709;-57
2022/01/10 07:20:22;;;;;;;110.60;41.50;;;;;;;0.98;78.91;100197.23;52491;1271;1016846;-57
2022/01/10 07:22:53;;;;;;;93.60;37.40;;;;;;;0.98;78.99;100200.61;52570;1271;1016223;-57
2022/01/10 07:25:24;;;;;;;68.70;28.50;;;;;;;0.95;78.88;100209.70;52543;1271;1020253;-57
2022/01/10 07:27:55;;;;;;;81.90;33.90;;;;;;;0.91;79.01;100211.00;52773;1271;1015938;-56
2022/01/10 07:30:26;;;;;;;66.20;30.20;;;;;;;0.90;78.98;100216.90;52524;1271;1020569;-56
2022/01/10 07:32:57;;;;;;;70.70;29.30;;;;;;;0.88;78.96;100219.36;52548;1271;1016586;-57
2022/01/10 07:35:29;;;;;;;69.00;27.50;;;;;;;0.86;79.03;100222.84;52645;1274;1016564;-58
2022/01/10 07:38:01;;;;;;;68.60;28.80;;;;;;;0.84;78.97;100228.45;52596;1271;1016620;-58
2022/01/10 07:40:32;;;;;;;62.70;27.50;;;;;;;0.82;79.12;100231.45;52661;1272;1016500;-57
2022/01/10 07:43:04;;;;;;;64.70;28.80;;;;;;;0.83;79.17;100239.77;52470;1271;1015963;-58
2022/01/10 07:45:35;;;;;;;69.50;27.10;;;;;;;0.83;79.11;100242.27;52534;1271;1016692;-57
2022/01/10 07:48:08;;;;;;;74.30;30.40;;;;;;;0.83;79.15;100252.89;52477;1271;1016802;-57
2022/01/10 07:50:39;;;;;;;73.40;32.70;;;;;;;0.83;79.15;100260.80;52579;1272;1016271;-58
2022/01/10 07:53:10;;;;;;;75.90;33.60;;;;;;;0.82;79.09;100265.23;52511;1272;1017474;-58
2022/01/10 07:55:41;;;;;;;85.90;36.60;;;;;;;0.82;79.03;100269.86;52521;1271;1016578;-58
2022/01/10 07:58:13;;;;;;;87.60;39.20;;;;;;;0.84;79.15;100271.88;52471;1271;1018607;-56
2022/01/10 08:00:44;;;;;;;89.70;35.00;;;;;;;0.86;79.02;100279.16;52457;1271;1016176;-58
2022/01/10 08:03:15;;;;;;;91.00;39.70;;;;;;;0.86;78.92;100289.13;52497;1272;1018785;-58
2022/01/10 08:05:47;;;;;;;92.10;37.30;;;;;;;0.87;79.13;100291.45;52443;1271;1018890;-56
2022/01/10 08:08:18;;;;;;;93.80;39.90;;;;;;;0.89;78.90;100296.31;52520;1271;1016480;-57
2022/01/10 08:10:49;;;;;;;87.80;41.00;;;;;;;0.88;78.91;100298.05;52529;1272;1016658;-57
2022/01/10 08:13:21;;;;;;;90.40;37.60;;;;;;;0.89;78.94;100299.77;52507;1271;1016798;-58
2022/01/10 08:15:53;;;;;;;85.40;38.80;;;;;;;0.89;78.86;100308.33;52555;1271;1019248;-57
2022/01/10 08:18:24;;;;;;;83.10;38.20;;;;;;;0.89;78.90;100312.17;52524;1271;1016176;-57
2022/01/10 08:20:56;;;;;;;94.50;40.80;;;;;;;0.89;78.82;100314.83;52663;1271;1016620;-57
2022/01/10 08:23:27;;;;;;;87.60;38.20;;;;;;;0.91;78.94;100321.64;52508;1271;1016433;-56
2022/01/10 08:25:58;;;;;;;84.70;39.00;;;;;;;0.92;78.85;100324.77;52519;1271;1017919;-57
2022/01/10 08:28:29;;;;;;;96.70;39.20;;;;;;;0.93;78.84;100334.19;52480;1272;1016706;-58
2022/01/10 08:31:00;;;;;;;91.00;40.20;;;;;;;0.94;78.80;100338.65;52510;1271;1017437;-57
2022/01/10 08:33:31;;;;;;;107.60;46.40;;;;;;;0.97;78.83;100339.48;52451;1272;1016286;-58
2022/01/10 08:36:02;;;;;;;94.20;41.30;;;;;;;1.00;78.81;100341.01;52504;1272;1016220;-57
2022/01/10 08:38:33;;;;;;;91.90;42.40;;;;;;;1.00;78.68;100340.85;52530;1271;1016497;-57
2022/01/10 08:41:04;;;;;;;90.50;41.20;;;;;;;1.01;78.69;100341.38;52503;1271;1016394;-58
2022/01/10 08:43:35;;;;;;;96.60;43.10;;;;;;;1.01;78.61;100345.24;52442;1271;1015884;-54
2022/01/10 08:46:06;;;;;;;91.20;43.50;;;;;;;1.00;78.46;100354.36;52464;1271;1016557;-58
2022/01/10 08:48:37;;;;;;;89.30;41.10;;;;;;;0.98;78.45;100359.73;52464;1271;1016238;-58
2022/01/10 08:51:08;;;;;;;102.50;45.40;;;;;;;0.94;78.43;100365.28;52535;1271;1016604;-57
2022/01/10 08:53:39;;;;;;;101.20;43.80;;;;;;;0.91;78.53;100372.29;52453;1271;1016311;-57
2022/01/10 08:56:10;;;;;;;109.10;50.10;;;;;;;0.90;78.59;100377.73;52531;1271;1016253;-57
2022/01/10 08:58:42;;;;;;;107.30;48.90;;;;;;;0.92;78.56;100383.29;52464;1271;1016699;-57
2022/01/10 09:01:13;;;;;;;106.50;44.80;;;;;;;0.95;78.66;100385.13;52620;1271;1018493;-58
2022/01/10 09:03:44;;;;;;;106.00;43.60;;;;;;;0.93;78.29;100389.00;52609;1271;1016014;-57
2022/01/10 09:06:16;;;;;;;102.90;48.10;;;;;;;0.92;78.38;100389.88;52495;1271;1016505;-57
2022/01/10 09:08:48;;;;;;;110.20;49.50;;;;;;;0.93;78.47;100394.98;52544;1272;1016361;-57
2022/01/10 09:11:20;;;;;;;99.80;44.80;;;;;;;0.96;78.45;100398.79;52431;1272;1016385;-57
2022/01/10 09:13:51;;;;;;;111.00;48.00;;;;;;;0.95;78.17;100406.50;52530;1271;1016951;-57
2022/01/10 09:16:22;;;;;;;120.20;52.70;;;;;;;0.94;78.34;100405.56;52408;1272;1016445;-57
2022/01/10 09:18:53;;;;;;;116.40;54.20;;;;;;;0.96;78.50;100408.21;52536;1271;1016208;-57
2022/01/10 09:21:25;;;;;;;106.50;50.00;;;;;;;0.99;78.41;100415.34;52585;1271;1016641;-59
2022/01/10 09:23:59;;;;;;;126.00;52.80;;;;;;;1.00;78.35;100416.88;52498;1271;1017960;-59
2022/01/10 09:26:31;;;;;;;119.70;52.00;;;;;;;1.05;78.49;100415.80;52699;1271;1016646;-58
2022/01/10 09:29:02;;;;;;;112.70;53.00;;;;;;;1.07;78.24;100419.01;52665;1271;1019683;-61
2022/01/10 09:31:33;;;;;;;118.70;56.30;;;;;;;1.08;78.17;100422.91;52580;1271;1016376;-57
2022/01/10 09:34:05;;;;;;;105.60;48.80;;;;;;;1.12;78.34;100426.31;52502;1274;1018547;-57
2022/01/10 09:36:36;;;;;;;108.50;51.70;;;;;;;1.12;77.97;100429.23;52634;1271;1016612;-58
2022/01/10 09:39:09;;;;;;;125.00;52.80;;;;;;;1.10;78.20;100432.15;52763;1272;1016306;-58
2022/01/10 09:41:40;;;;;;;116.70;54.00;;;;;;;1.14;78.22;100436.13;52508;1271;1016455;-58
2022/01/10 09:44:11;;;;;;;120.50;52.80;;;;;;;1.17;78.24;100442.84;52436;1271;1018949;-58
2022/01/10 09:46:42;;;;;;;120.70;51.80;;;;;;;1.19;78.08;100447.30;52507;1271;1015918;-57
2022/01/10 09:49:14;;;;;;;113.90;51.70;;;;;;;1.21;78.02;100448.84;52477;1271;1016653;-58
2022/01/10 09:51:45;;;;;;;124.30;54.50;;;;;;;1.21;77.99;100450.02;52378;1271;1018767;-57
2022/01/10 09:54:16;;;;;;;110.10;52.10;;;;;;;1.22;77.93;100448.90;52580;1271;1016524;-58
2022/01/10 09:56:49;;;;;;;108.70;51.60;;;;;;;1.24;78.02;100453.36;52546;1271;1016050;-59
2022/01/10 09:59:20;;;;;;;106.40;50.50;;;;;;;1.25;78.00;100457.74;52661;1271;1016284;-58
2022/01/10 10:01:51;;;;;;;109.70;49.70;;;;;;;1.26;77.89;100464.01;52430;1271;1016568;-57
2022/01/10 10:04:24;;;;;;;118.20;53.60;;;;;;;1.28;77.90;100469.35;52577;1271;1016395;-57
2022/01/10 10:06:55;;;;;;;112.60;49.10;;;;;;;1.30;77.99;100472.55;52584;1271;1016158;-58
2022/01/10 10:09:27;;;;;;;130.80;56.10;;;;;;;1.31;77.94;100477.81;52567;1271;1018162;-59
2022/01/10 10:12:00;;;;;;;119.60;54.80;;;;;;;1.34;78.00;100476.73;52543;1271;1016244;-58
2022/01/10 10:14:32;;;;;;;116.70;55.50;;;;;;;1.35;77.86;100484.19;52541;1271;1016063;-58
2022/01/10 10:17:12;;;;;;;123.10;53.40;;;;;;;1.37;77.88;100491.80;52546;1271;1016242;-58
2022/01/10 10:19:44;;;;;;;130.90;54.00;;;;;;;1.39;78.13;100498.54;52557;1271;1016130;-58
2022/01/10 10:22:17;;;;;;;107.80;49.80;;;;;;;1.42;77.90;100502.81;52476;1271;1016662;-58
2022/01/10 10:24:51;;;;;;;116.90;52.00;;;;;;;1.43;77.82;100505.08;52683;1271;1016707;-57
2022/01/10 10:27:22;;;;;;;116.20;52.60;;;;;;;1.44;77.81;100506.95;52496;1271;1016321;-58
2022/01/10 10:29:53;;;;;;;117.50;52.00;;;;;;;1.45;77.63;100513.88;52541;1271;1016687;-57
2022/01/10 10:32:31;;;;;;;127.40;55.60;;;;;;;1.42;77.69;100521.52;52468;1272;1016385;-58
2022/01/10 10:35:04;;;;;;;122.10;54.00;;;;;;;1.42;77.75;100520.35;52498;1271;1016675;-58
2022/01/10 10:37:38;;;;;;;110.00;52.50;;;;;;;1.45;77.88;100529.35;52565;1271;1016496;-58
2022/01/10 10:40:14;;;;;;;124.90;55.50;;;;;;;1.47;77.72;100532.07;52588;1271;1016509;-58
2022/01/10 10:42:46;;;;;;;117.50;53.70;;;;;;;1.50;77.82;100535.11;52596;1271;1016782;-58
2022/01/10 10:45:17;;;;;;;127.40;57.50;;;;;;;1.52;77.67;100539.89;52545;1271;1016518;-58
2022/01/10 10:47:48;;;;;;;108.50;48.80;;;;;;;1.55;77.54;100544.64;52533;1271;1016134;-59
2022/01/10 10:50:23;;;;;;;102.00;44.70;;;;;;;1.56;77.50;100546.44;52558;1271;1016477;-58
2022/01/10 10:52:55;;;;;;;93.70;42.10;;;;;;;1.56;77.08;100555.80;52541;1271;1016248;-58
2022/01/10 10:55:26;;;;;;;110.90;50.10;;;;;;;1.54;77.06;100560.38;52519;1272;1019943;-59
2022/01/10 10:57:57;;;;;;;110.00;51.40;;;;;;;1.55;77.25;100564.30;52542;1271;1016471;-58
2022/01/10 11:00:28;;;;;;;127.70;54.30;;;;;;;1.56;77.00;100573.09;52744;1271;1017242;-58
2022/01/10 11:03:00;;;;;;;117.20;52.30;;;;;;;1.60;77.36;100576.43;52575;1272;1016841;-58
2022/01/10 11:05:31;;;;;;;114.40;51.40;;;;;;;1.63;77.08;100580.56;52744;1271;1016592;-58
2022/01/10 11:08:03;;;;;;;109.50;48.40;;;;;;;1.65;77.06;100584.87;52545;1271;1016426;-58
2022/01/10 11:10:34;;;;;;;106.20;50.40;;;;;;;1.67;76.86;100588.16;52532;1271;1017024;-58
2022/01/10 11:13:06;;;;;;;113.00;47.80;;;;;;;1.68;76.91;100589.17;52589;1271;1015984;-58
2022/01/10 11:15:39;;;;;;;108.80;48.40;;;;;;;1.70;76.81;100591.04;52632;1271;1018404;-58
2022/01/10 11:18:10;;;;;;;107.40;50.10;;;;;;;1.73;76.92;100597.83;52774;1271;1016277;-60
2022/01/10 11:20:46;;;;;;;110.60;50.30;;;;;;;1.75;76.70;100597.98;53000;1271;1016379;-59
2022/01/10 11:23:17;;;;;;;114.70;52.10;;;;;;;1.74;76.26;100599.08;53005;1271;1016577;-58
2022/01/10 11:25:48;;;;;;;111.30;49.50;;;;;;;1.72;76.42;100602.70;53021;1271;1016724;-59
2022/01/10 11:28:25;;;;;;;90.40;37.00;;;;;;;1.73;76.35;100600.73;52974;1271;1016114;-58
2022/01/10 11:31:00;;;;;;;97.40;44.80;;;;;;;1.74;76.02;100607.48;53000;1271;1016319;-59